Time;durP1;ratioP1;P1;durP2;ratioP2;P2;SDS_P1;SDS_P2;PMS_P1;PMS_P2;Temp;Humidity;BMP_temperature;BMP_pressure;BME280_temperature;BME280_humidity;BME280_pressure;Samples;Min_cycle;Max_cycle;Signal;HPM_P1;HPM_P2
2022/11/09 00:00:14;;;;;;;54.47;5.93;;;10.50;99.90;;;;;;5016496;28;20050;-73
2022/11/09 00:02:42;;;;;;;55.10;5.47;;;10.40;99.90;;;;;;4998451;28;20045;-73
2022/11/09 00:05:10;;;;;;;56.70;5.80;;;10.50;99.90;;;;;;4999548;28;20476;-74
2022/11/09 00:07:38;;;;;;;53.55;5.43;;;10.50;99.90;;;;;;5016588;28;20357;-74
2022/11/09 00:10:06;;;;;;;59.63;5.73;;;10.50;99.90;;;;;;5015130;28;20056;-73
2022/11/09 00:12:33;;;;;;;54.75;5.15;;;10.50;99.90;;;;;;5016128;28;20298;-73
2022/11/09 00:15:01;;;;;;;50.65;5.03;;;11.70;99.90;;;;;;5016595;28;20050;-73
2022/11/09 00:17:28;;;;;;;50.67;5.32;;;10.50;99.90;;;;;;5015274;28;20453;-74
2022/11/09 00:19:56;;;;;;;45.97;5.10;;;10.50;99.90;;;;;;5016277;28;20053;-73
2022/11/09 00:22:23;;;;;;;49.85;5.53;;;10.50;99.90;;;;;;4997703;28;20420;-74
2022/11/09 00:24:51;;;;;;;36.65;4.50;;;11.60;99.90;;;;;;5015989;28;20046;-73
2022/11/09 00:27:18;;;;;;;46.95;4.55;;;10.50;99.90;;;;;;5016057;28;20054;-73
2022/11/09 00:29:46;;;;;;;57.80;5.10;;;10.40;99.90;;;;;;4997748;28;20045;-73
2022/11/09 00:32:13;;;;;;;53.85;4.90;;;11.00;99.90;;;;;;5015792;28;20222;-73
2022/11/09 00:34:43;;;;;;;49.65;4.53;;;11.00;99.90;;;;;;4998457;28;20053;-74
2022/11/09 00:37:10;;;;;;;53.22;4.60;;;10.80;99.90;;;;;;4981436;28;20042;-73
2022/11/09 00:39:38;;;;;;;50.58;4.32;;;10.40;99.90;;;;;;5015725;28;20041;-73
2022/11/09 00:42:06;;;;;;;58.67;5.03;;;10.30;99.90;;;;;;4997709;28;20042;-73
2022/11/09 00:44:33;;;;;;;53.10;4.85;;;10.30;99.90;;;;;;5015796;28;20041;-74
2022/11/09 00:47:01;;;;;;;51.35;5.07;;;10.50;99.90;;;;;;4998735;28;20042;-73
2022/11/09 00:49:28;;;;;;;45.92;4.38;;;10.20;99.90;;;;;;4997100;28;20061;-73
2022/11/09 00:51:56;;;;;;;50.58;5.75;;;10.20;99.90;;;;;;5015521;28;20046;-73
2022/11/09 00:54:24;;;;;;;52.25;4.32;;;10.90;99.90;;;;;;5015351;28;20060;-73
2022/11/09 00:56:51;;;;;;;44.63;4.82;;;10.20;99.90;;;;;;4997189;28;20041;-73
2022/11/09 00:59:19;;;;;;;43.08;4.75;;;10.20;99.90;;;;;;4998071;28;20046;-73
2022/11/09 01:01:47;;;;;;;;;;;10.40;99.90;;;;;;4982406;28;20053;-74
2022/11/09 01:04:17;;;;;;;41.28;4.90;;;10.20;99.90;;;;;;4997079;28;19921;-73
2022/11/09 01:06:45;;;;;;;46.72;4.72;;;10.20;99.90;;;;;;4998602;28;20042;-73
2022/11/09 01:09:13;;;;;;;52.05;4.75;;;10.30;99.90;;;;;;5013601;28;20061;-73
2022/11/09 01:11:40;;;;;;;39.60;4.63;;;10.30;99.90;;;;;;4998040;28;20113;-74
2022/11/09 01:14:09;;;;;;;51.85;4.88;;;10.30;99.90;;;;;;5015164;28;20046;-74
2022/11/09 01:16:38;;;;;;;46.50;4.70;;;10.30;99.90;;;;;;4996823;28;20037;-73
2022/11/09 01:19:05;;;;;;;36.40;4.00;;;10.20;99.90;;;;;;5014967;28;20045;-74
2022/11/09 01:21:33;;;;;;;40.38;4.00;;;10.20;99.90;;;;;;5015459;28;20386;-73
2022/11/09 01:24:01;;;;;;;38.30;3.88;;;10.30;99.90;;;;;;4996980;28;20050;-73
2022/11/09 01:26:28;;;;;;;52.78;4.43;;;10.90;99.90;;;;;;4998226;28;20045;-73
2022/11/09 01:28:56;;;;;;;42.20;4.50;;;12.20;99.90;;;;;;4997050;28;20054;-73
2022/11/09 01:31:24;;;;;;;;;;;10.40;99.90;;;;;;4998061;28;20061;-74
2022/11/09 01:33:52;;;;;;;31.33;4.03;;;10.50;99.90;;;;;;4998240;28;19921;-74
2022/11/09 01:36:22;;;;;;;38.53;3.85;;;10.50;99.90;;;;;;5014165;28;20465;-73
2022/11/09 01:38:49;;;;;;;40.13;4.10;;;10.90;99.90;;;;;;5015059;28;20369;-73
2022/11/09 01:41:20;;;;;;;43.28;4.60;;;11.20;99.90;;;;;;4998051;28;20038;-73
2022/11/09 01:44:17;;;;;;;36.83;3.72;;;10.50;99.90;;;;;;5013996;28;20046;-73
2022/11/09 01:46:55;;;;;;;37.88;4.18;;;10.60;99.90;;;;;;4997713;28;20068;-73
2022/11/09 01:49:45;;;;;;;36.05;4.03;;;10.40;99.90;;;;;;4996590;28;20061;-73
2022/11/09 01:52:24;;;;;;;44.90;4.20;;;10.40;99.90;;;;;;4998562;28;20057;-73
2022/11/09 01:54:57;;;;;;;45.45;4.80;;;10.40;99.90;;;;;;5020951;28;20054;-73
2022/11/09 01:57:38;;;;;;;56.78;4.50;;;10.30;99.90;;;;;;5000386;28;20057;-73
2022/11/09 02:00:11;;;;;;;43.38;3.88;;;10.30;99.90;;;;;;5001681;28;20042;-74
2022/11/09 02:02:53;;;;;;;37.38;4.55;;;10.30;99.90;;;;;;5017763;28;20046;-73
2022/11/09 02:05:26;;;;;;;36.38;4.05;;;10.40;99.90;;;;;;5001831;28;20042;-74
2022/11/09 02:07:56;;;;;;;41.85;3.92;;;10.40;99.90;;;;;;4985256;28;20064;-74
2022/11/09 02:10:44;;;;;;;48.63;4.57;;;10.90;99.90;;;;;;4984040;28;20635;-73
2022/11/09 02:13:15;;;;;;;39.70;3.75;;;10.40;99.90;;;;;;5019111;28;20069;-73
2022/11/09 02:15:43;;;;;;;50.40;4.47;;;10.30;99.90;;;;;;5000519;28;20052;-74
2022/11/09 02:18:13;;;;;;;43.95;4.35;;;10.30;99.90;;;;;;4985446;28;20057;-73
2022/11/09 02:20:45;;;;;;;49.95;4.22;;;11.10;99.90;;;;;;4984853;28;20057;-73
2022/11/09 02:23:13;;;;;;;41.97;4.22;;;10.30;99.90;;;;;;5017261;28;20046;-73
2022/11/09 02:25:45;;;;;;;43.25;4.35;;;10.20;99.90;;;;;;4985341;28;20049;-73
2022/11/09 02:28:14;;;;;;;41.47;4.25;;;10.70;99.90;;;;;;5001161;28;20056;-73
2022/11/09 02:30:47;;;;;;;34.78;4.07;;;10.30;99.90;;;;;;4983817;28;20487;-74
2022/11/09 02:33:15;;;;;;;41.75;4.63;;;10.00;99.90;;;;;;5000943;28;20057;-74
2022/11/09 02:35:44;;;;;;;45.25;4.47;;;10.30;99.90;;;;;;4999685;28;20061;-73
2022/11/09 02:38:13;;;;;;;45.40;4.63;;;10.30;99.90;;;;;;5000799;28;20361;-73
2022/11/09 02:40:45;;;;;;;52.75;5.10;;;10.30;99.90;;;;;;5000699;28;20038;-73
2022/11/09 02:43:14;;;;;;;45.35;4.30;;;10.70;99.90;;;;;;4983945;28;20042;-73
2022/11/09 02:45:43;;;;;;;41.10;4.30;;;11.20;99.90;;;;;;5000945;28;20038;-73
2022/11/09 02:48:11;;;;;;;46.75;4.82;;;10.40;99.90;;;;;;5000467;28;20054;-73
2022/11/09 02:50:39;;;;;;;47.67;4.45;;;10.40;99.90;;;;;;4999533;28;20042;-73
2022/11/09 02:53:06;;;;;;;49.28;4.15;;;10.50;99.90;;;;;;5000544;28;20042;-73
2022/11/09 02:55:37;;;;;;;32.70;3.67;;;10.60;99.90;;;;;;5017612;28;20061;-73
2022/11/09 02:58:06;;;;;;;35.80;4.20;;;10.50;99.90;;;;;;5020290;28;20045;-73
2022/11/09 03:00:34;;;;;;;34.22;3.47;;;11.70;99.90;;;;;;5036295;28;20049;-73
2022/11/09 03:03:03;;;;;;;28.13;3.85;;;10.50;99.90;;;;;;5035475;28;20046;-73
2022/11/09 03:05:30;;;;;;;30.48;3.05;;;10.60;99.90;;;;;;5036663;28;20053;-73
2022/11/09 03:08:01;;;;;;;27.42;3.40;;;11.70;99.90;;;;;;5020340;28;20049;-73
2022/11/09 03:10:32;;;;;;;28.88;3.63;;;10.90;99.90;;;;;;5035418;28;20483;-73
2022/11/09 03:13:00;;;;;;;36.65;3.45;;;10.60;99.90;;;;;;5020202;28;20049;-73
2022/11/09 03:15:28;;;;;;;34.22;4.00;;;11.40;99.90;;;;;;5035200;28;20045;-73
2022/11/09 03:17:56;;;;;;;32.67;3.85;;;11.50;99.90;;;;;;5036198;28;20057;-73
2022/11/09 03:20:24;;;;;;;25.08;3.60;;;10.70;99.90;;;;;;5019597;28;20054;-73
2022/11/09 03:22:57;;;;;;;34.28;3.22;;;11.90;99.90;;;;;;5035229;28;20049;-73
2022/11/09 03:25:26;;;;;;;33.55;3.63;;;10.70;99.90;;;;;;5019529;28;20045;-73
2022/11/09 03:28:02;;;;;;;29.38;3.55;;;10.70;99.90;;;;;;5036182;28;20373;-73
2022/11/09 03:30:30;;;;;;;33.25;3.03;;;10.70;99.90;;;;;;5035038;28;20041;-73
2022/11/09 03:33:00;;;;;;;32.20;3.33;;;10.70;99.90;;;;;;5019449;28;20056;-73
2022/11/09 03:35:28;;;;;;;30.90;3.45;;;10.70;99.90;;;;;;5035053;28;20053;-73
2022/11/09 03:37:56;;;;;;;21.58;2.90;;;10.80;99.90;;;;;;5035632;28;20056;-73
2022/11/09 03:40:24;;;;;;;26.60;3.00;;;10.70;99.90;;;;;;5019175;28;20389;-73
2022/11/09 03:42:52;;;;;;;27.30;3.47;;;10.70;99.90;;;;;;5018145;28;20053;-73
2022/11/09 03:45:20;;;;;;;29.33;3.33;;;10.70;99.90;;;;;;5036127;28;20049;-74
2022/11/09 03:47:48;;;;;;;24.70;2.97;;;10.60;99.90;;;;;;5036501;28;20050;-73
2022/11/09 03:50:17;;;;;;;22.15;2.78;;;10.50;99.90;;;;;;5034446;28;20068;-73
2022/11/09 03:52:45;;;;;;;22.52;2.50;;;10.40;99.90;;;;;;5036281;28;20046;-73
2022/11/09 03:55:13;;;;;;;21.58;2.13;;;10.40;99.90;;;;;;5020511;28;20492;-73
2022/11/09 03:57:44;;;;;;;15.10;1.73;;;10.90;99.90;;;;;;5016625;28;20477;-73
2022/11/09 04:00:14;;;;;;;14.63;1.88;;;10.60;99.90;;;;;;4999557;28;20038;-73
2022/11/09 04:02:42;;;;;;;13.45;2.05;;;9.60;99.90;;;;;;4998582;28;20060;-73
2022/11/09 04:05:10;;;;;;;19.65;1.90;;;10.60;99.90;;;;;;4999553;28;20368;-73
2022/11/09 04:07:38;;;;;;;;;;;10.60;99.90;;;;;;5016641;28;20457;-74
2022/11/09 04:10:06;;;;;;;11.30;1.60;;;10.30;99.90;;;;;;5015299;28;19925;-73
2022/11/09 04:12:33;;;;;;;;;;;10.30;99.90;;;;;;5017133;28;20057;-73
2022/11/09 04:15:00;;;;;;;13.50;1.47;;;10.30;99.90;;;;;;5015944;28;19928;-73
2022/11/09 04:17:28;;;;;;;17.48;1.90;;;10.30;99.90;;;;;;4997981;28;20329;-73
2022/11/09 04:19:55;;;;;;;15.05;2.05;;;10.30;99.90;;;;;;5015887;28;20072;-74
2022/11/09 04:22:23;;;;;;;18.10;1.85;;;10.80;99.90;;;;;;5015171;28;20045;-73
2022/11/09 04:24:50;;;;;;;15.27;1.80;;;10.30;99.90;;;;;;5016239;28;20121;-73
2022/11/09 04:27:18;;;;;;;20.08;2.33;;;10.90;99.90;;;;;;4999075;28;20057;-73
2022/11/09 04:29:45;;;;;;;19.98;2.28;;;10.30;99.90;;;;;;4998009;28;20061;-74
2022/11/09 04:32:13;;;;;;;20.58;2.13;;;10.30;99.90;;;;;;5015758;28;20069;-73
2022/11/09 04:34:41;;;;;;;22.42;2.15;;;10.60;99.90;;;;;;4998716;28;20049;-73
2022/11/09 04:37:09;;;;;;;17.05;1.92;;;11.30;99.90;;;;;;5014757;28;20045;-73
2022/11/09 04:39:37;;;;;;;22.33;2.20;;;10.20;99.90;;;;;;4998872;28;20050;-73
2022/11/09 04:42:04;;;;;;;25.13;2.15;;;11.10;99.90;;;;;;5015042;28;20041;-73
2022/11/09 04:44:32;;;;;;;22.35;2.35;;;10.20;99.90;;;;;;5015621;28;20045;-73
2022/11/09 04:46:59;;;;;;;23.77;2.55;;;10.20;99.90;;;;;;5015576;28;20049;-73
2022/11/09 04:49:27;;;;;;;24.33;2.63;;;10.80;99.90;;;;;;5014605;28;20052;-73
2022/11/09 04:51:54;;;;;;;25.77;2.53;;;11.50;99.90;;;;;;5016091;28;20053;-73
2022/11/09 04:54:22;;;;;;;26.10;2.72;;;11.30;99.90;;;;;;5015505;28;20481;-73
2022/11/09 04:56:49;;;;;;;23.20;2.53;;;11.00;99.90;;;;;;5014585;28;20049;-73
2022/11/09 04:59:17;;;;;;;21.58;2.33;;;11.30;99.90;;;;;;5015466;28;20457;-73
2022/11/09 05:01:44;;;;;;;24.58;2.38;;;11.00;99.90;;;;;;5015613;28;20052;-73
2022/11/09 05:04:12;;;;;;;18.77;2.15;;;10.10;99.90;;;;;;5014320;28;20049;-73
2022/11/09 05:06:39;;;;;;;23.40;2.30;;;10.10;99.90;;;;;;5015548;28;20065;-73
2022/11/09 05:09:07;;;;;;;22.63;2.55;;;11.40;99.90;;;;;;5014262;28;20042;-73
2022/11/09 05:11:35;;;;;;;25.05;2.30;;;10.20;99.90;;;;;;5015522;28;20045;-73
2022/11/09 05:14:03;;;;;;;23.05;2.38;;;10.30;99.90;;;;;;5015340;28;20045;-73
2022/11/09 05:16:31;;;;;;;24.90;2.83;;;10.30;99.90;;;;;;4997493;28;20465;-74
2022/11/09 05:18:58;;;;;;;33.72;3.53;;;10.40;99.90;;;;;;5015494;28;20053;-73
2022/11/09 05:21:26;;;;;;;27.13;2.50;;;10.40;99.90;;;;;;5015154;28;20397;-73
2022/11/09 05:23:59;;;;;;;20.42;2.38;;;10.50;99.90;;;;;;5014223;28;20279;-73
2022/11/09 05:26:32;;;;;;;24.52;2.60;;;9.10;99.90;;;;;;4997373;28;20046;-73
2022/11/09 05:29:02;;;;;;;20.83;2.40;;;10.90;99.90;;;;;;5014073;28;20057;-73
2022/11/09 05:31:30;;;;;;;23.90;2.15;;;10.50;99.90;;;;;;5015185;28;20064;-73
2022/11/09 05:33:58;;;;;;;25.88;2.28;;;10.50;99.90;;;;;;5014916;28;20057;-73
2022/11/09 05:36:27;;;;;;;20.55;1.85;;;10.50;99.90;;;;;;4996904;28;20500;-74
2022/11/09 05:38:54;;;;;;;23.48;2.20;;;10.50;99.90;;;;;;5014738;28;20368;-73
2022/11/09 05:41:22;;;;;;;21.67;2.00;;;11.10;99.90;;;;;;5014874;28;20038;-73
2022/11/09 05:43:49;;;;;;;16.67;1.77;;;10.60;99.90;;;;;;5013910;28;20288;-74
2022/11/09 05:46:17;;;;;;;16.08;1.70;;;10.40;99.90;;;;;;4998116;28;20049;-74
2022/11/09 05:48:45;;;;;;;16.02;1.83;;;11.40;99.90;;;;;;5014021;28;20046;-74
2022/11/09 05:51:14;;;;;;;11.23;1.30;;;10.90;99.90;;;;;;4998372;28;20038;-73
2022/11/09 05:53:42;;;;;;;11.20;1.33;;;11.20;99.90;;;;;;5014529;28;20042;-74
2022/11/09 05:56:14;;;;;;;13.25;1.40;;;10.60;99.90;;;;;;5014135;28;20042;-74
2022/11/09 05:58:42;;;;;;;16.30;1.30;;;10.30;99.90;;;;;;4997756;28;20042;-73
2022/11/09 06:01:14;;;;;;;;;;;10.80;99.90;;;;;;5015501;28;20057;-74
2022/11/09 06:03:42;;;;;;;11.35;1.25;;;10.30;99.90;;;;;;5013583;28;19922;-73
2022/11/09 06:06:13;;;;;;;16.73;1.60;;;10.20;99.90;;;;;;5014803;28;20042;-73
2022/11/09 06:08:41;;;;;;;18.33;1.60;;;10.20;99.90;;;;;;5013875;28;20042;-73
2022/11/09 06:11:11;;;;;;;17.75;1.63;;;10.10;99.90;;;;;;5014927;28;20045;-73
2022/11/09 06:13:41;;;;;;;11.52;1.30;;;11.10;99.90;;;;;;5014655;28;20069;-73
2022/11/09 06:16:08;;;;;;;15.50;1.50;;;10.20;99.90;;;;;;5013571;28;20382;-73
2022/11/09 06:18:36;;;;;;;14.55;1.90;;;10.10;99.90;;;;;;5014635;28;20049;-74
2022/11/09 06:21:05;;;;;;;16.05;1.67;;;10.10;99.90;;;;;;5014445;28;20042;-73
2022/11/09 06:23:33;;;;;;;13.40;1.50;;;10.20;99.90;;;;;;4996334;28;20054;-74
2022/11/09 06:26:02;;;;;;;;;;;11.20;99.90;;;;;;4997977;28;20045;-74
2022/11/09 06:28:29;;;;;;;14.55;1.50;;;10.20;99.90;;;;;;5014652;28;20030;-73
2022/11/09 06:30:58;;;;;;;19.73;1.63;;;10.20;99.90;;;;;;5013260;28;20382;-73
2022/11/09 06:33:28;;;;;;;14.07;1.65;;;10.10;99.90;;;;;;4981780;28;20049;-73
2022/11/09 06:35:56;;;;;;;16.05;1.63;;;10.60;99.90;;;;;;5013842;28;20061;-74
2022/11/09 06:38:27;;;;;;;11.95;1.30;;;10.10;99.90;;;;;;5015576;28;20042;-73
2022/11/09 06:40:57;;;;;;;10.75;1.38;;;10.10;99.90;;;;;;5000847;28;20046;-73
2022/11/09 06:43:25;;;;;;;15.93;1.35;;;10.20;99.90;;;;;;5016835;28;20045;-73
2022/11/09 06:45:53;;;;;;;9.30;1.23;;;10.10;99.90;;;;;;5018585;28;20057;-73
2022/11/09 06:48:21;;;;;;;9.88;1.52;;;10.10;99.90;;;;;;5017889;28;20057;-73
2022/11/09 06:50:48;;;;;;;9.13;1.33;;;10.10;99.90;;;;;;5016707;28;20477;-73
2022/11/09 06:53:16;;;;;;;12.13;1.10;;;10.10;99.90;;;;;;5017657;28;20054;-73
2022/11/09 06:55:45;;;;;;;8.32;1.10;;;10.20;99.90;;;;;;5016730;28;20287;-73
2022/11/09 06:58:18;;;;;;;14.07;1.58;;;10.00;99.90;;;;;;5017567;28;20061;-73
2022/11/09 07:00:46;;;;;;;10.20;1.10;;;10.10;99.90;;;;;;5017847;28;20496;-73
2022/11/09 07:03:15;;;;;;;18.45;1.13;;;10.00;99.90;;;;;;5016548;28;20046;-73
2022/11/09 07:05:43;;;;;;;13.15;1.20;;;10.10;99.90;;;;;;5017631;28;20053;-73
2022/11/09 07:08:11;;;;;;;14.52;2.10;;;9.80;99.90;;;;;;5017714;28;20050;-73
2022/11/09 07:10:39;;;;;;;11.13;1.05;;;9.90;99.90;;;;;;5016202;28;20053;-73
2022/11/09 07:13:07;;;;;;;13.82;1.30;;;9.90;99.90;;;;;;5017296;28;20050;-73
2022/11/09 07:15:36;;;;;;;10.48;1.13;;;9.90;99.90;;;;;;5016781;28;20743;-73
2022/11/09 07:18:05;;;;;;;13.13;1.35;;;10.20;99.90;;;;;;5017393;28;20050;-73
2022/11/09 07:20:33;;;;;;;13.27;1.42;;;10.00;99.90;;;;;;5000191;28;20496;-73
2022/11/09 07:23:00;;;;;;;16.67;1.45;;;10.50;99.90;;;;;;5016133;28;20046;-73
2022/11/09 07:25:28;;;;;;;16.38;1.58;;;11.20;99.90;;;;;;5017317;28;20068;-74
2022/11/09 07:28:06;;;;;;;12.35;1.00;;;11.20;99.90;;;;;;5016985;28;20373;-73
2022/11/09 07:30:35;;;;;;;13.45;1.60;;;10.10;99.90;;;;;;4999213;28;20041;-74
2022/11/09 07:33:10;;;;;;;11.40;1.20;;;10.10;99.90;;;;;;5016857;28;20353;-73
2022/11/09 07:35:38;;;;;;;11.50;1.40;;;10.80;99.90;;;;;;5018373;28;20045;-73
2022/11/09 07:38:06;;;;;;;11.85;1.35;;;10.10;99.90;;;;;;5019532;28;20046;-73
2022/11/09 07:40:34;;;;;;;10.63;1.02;;;11.50;99.90;;;;;;5036815;28;20045;-74
2022/11/09 07:43:03;;;;;;;10.43;1.00;;;10.20;99.90;;;;;;5035489;28;20057;-73
2022/11/09 07:45:32;;;;;;;11.02;1.20;;;10.10;99.90;;;;;;5019302;28;20041;-73
2022/11/09 07:48:02;;;;;;;11.48;1.10;;;10.10;99.90;;;;;;5019280;28;20049;-73
2022/11/09 07:50:31;;;;;;;7.05;0.95;;;10.10;99.90;;;;;;5017129;28;20072;-73
2022/11/09 07:53:00;;;;;;;11.98;1.55;;;10.90;99.90;;;;;;5036480;28;20081;-73
2022/11/09 07:55:28;;;;;;;11.60;1.38;;;10.10;99.90;;;;;;5035286;28;20057;-73
2022/11/09 07:57:58;;;;;;;12.52;1.30;;;10.50;99.90;;;;;;5036375;28;20053;-73
2022/11/09 08:00:28;;;;;;;11.57;1.50;;;9.90;99.90;;;;;;5035708;28;20476;-75
2022/11/09 08:02:56;;;;;;;16.27;2.65;;;9.90;99.90;;;;;;5001259;28;20049;-73
2022/11/09 08:05:23;;;;;;;13.35;2.22;;;11.00;99.90;;;;;;5035933;28;20064;-73
2022/11/09 08:07:55;;;;;;;11.30;1.83;;;10.60;99.90;;;;;;5018728;28;20372;-74
2022/11/09 08:10:25;;;;;;;12.80;1.20;;;11.20;99.90;;;;;;5034863;28;20056;-73
2022/11/09 08:12:57;;;;;;;16.80;1.50;;;10.50;99.90;;;;;;5035797;28;20495;-73
2022/11/09 08:15:25;;;;;;;16.75;1.92;;;10.20;99.90;;;;;;5034372;28;20056;-73
2022/11/09 08:17:53;;;;;;;14.60;1.65;;;9.80;99.90;;;;;;5035824;28;20045;-73
2022/11/09 08:20:21;;;;;;;17.27;2.10;;;9.90;99.90;;;;;;5035540;28;20058;-73
2022/11/09 08:22:48;;;;;;;27.30;2.35;;;11.20;99.90;;;;;;5034524;28;20048;-73
2022/11/09 08:25:16;;;;;;;11.57;1.23;;;10.00;99.90;;;;;;5018209;28;20053;-73
2022/11/09 08:27:43;;;;;;;14.68;1.77;;;10.00;99.90;;;;;;5035325;28;20282;-73
2022/11/09 08:30:14;;;;;;;17.33;1.90;;;11.20;99.90;;;;;;5034094;28;20042;-73
2022/11/09 08:32:42;;;;;;;14.52;1.60;;;10.10;99.90;;;;;;5035380;28;20046;-72
2022/11/09 08:35:16;;;;;;;17.85;1.88;;;10.20;99.90;;;;;;5035339;28;20045;-73
2022/11/09 08:37:45;;;;;;;15.35;1.58;;;10.30;99.90;;;;;;5018094;28;20046;-73
2022/11/09 08:40:15;;;;;;;18.27;1.80;;;10.50;99.90;;;;;;5034992;28;20053;-73
2022/11/09 08:42:43;;;;;;;14.75;1.75;;;10.50;99.90;;;;;;5025215;28;20042;-73
2022/11/09 08:45:12;;;;;;;15.82;1.90;;;10.50;99.90;;;;;;5015786;28;20046;-73
2022/11/09 08:47:39;;;;;;;;;;;11.00;99.90;;;;;;5016797;28;20042;-73
2022/11/09 08:50:09;;;;;;;18.00;1.67;;;10.60;99.90;;;;;;5014631;28;19932;-73
2022/11/09 08:52:37;;;;;;;11.93;1.30;;;10.50;99.90;;;;;;5015619;28;20461;-73
2022/11/09 08:55:05;;;;;;;;;;;10.50;99.90;;;;;;5016239;28;20046;-73
2022/11/09 08:57:33;;;;;;;9.38;1.50;;;10.40;99.90;;;;;;5014822;28;20264;-73
2022/11/09 09:00:00;;;;;;;17.63;1.38;;;10.90;99.90;;;;;;5015433;28;20041;-74
2022/11/09 09:02:29;;;;;;;17.17;1.48;;;10.40;99.90;;;;;;5014259;28;20057;-74
2022/11/09 09:04:56;;;;;;;10.52;1.02;;;10.50;99.90;;;;;;5015601;28;20057;-74
2022/11/09 09:07:24;;;;;;;13.05;1.38;;;10.80;99.90;;;;;;5015259;28;20037;-74
2022/11/09 09:09:51;;;;;;;19.58;1.65;;;10.40;99.90;;;;;;5014413;28;20046;-73
2022/11/09 09:12:19;;;;;;;12.48;1.08;;;10.40;99.90;;;;;;5015249;28;20089;-73
2022/11/09 09:14:46;;;;;;;10.55;1.30;;;10.70;99.90;;;;;;4998550;28;20046;-73
2022/11/09 09:17:14;;;;;;;10.20;1.30;;;10.40;99.90;;;;;;5014465;28;20053;-73
2022/11/09 09:19:42;;;;;;;8.60;1.15;;;10.40;99.90;;;;;;4982136;28;20061;-73
2022/11/09 09:22:16;;;;;;;11.23;1.30;;;9.50;99.90;;;;;;5014809;28;20049;-74
2022/11/09 09:24:43;;;;;;;8.60;0.90;;;10.50;99.90;;;;;;5015688;28;20057;-73
2022/11/09 09:27:13;;;;;;;12.98;1.30;;;11.30;99.90;;;;;;5015544;28;20444;-73
2022/11/09 09:29:40;;;;;;;12.30;1.25;;;10.60;99.90;;;;;;5014141;28;20060;-73
2022/11/09 09:32:08;;;;;;;9.47;1.20;;;10.90;99.90;;;;;;5015005;28;20073;-74
2022/11/09 09:34:35;;;;;;;8.68;1.50;;;10.60;99.90;;;;;;5015402;28;20283;-73
2022/11/09 09:37:03;;;;;;;10.77;1.10;;;10.60;99.90;;;;;;4997097;28;20050;-73
2022/11/09 09:39:30;;;;;;;10.13;0.80;;;10.60;99.90;;;;;;5015499;28;20057;-74
2022/11/09 09:42:03;;;;;;;6.22;0.95;;;10.80;99.90;;;;;;5018697;28;20037;-74
2022/11/09 09:44:39;;;;;;;15.07;1.02;;;10.60;99.90;;;;;;5026548;28;20042;-75
2022/11/09 09:47:38;;;;;;;7.47;0.80;;;10.60;99.90;;;;;;5037094;28;20046;-73
2022/11/09 09:50:26;;;;;;;5.95;1.17;;;10.60;99.90;;;;;;5023152;28;20060;-73
2022/11/09 09:53:15;;;;;;;8.68;1.20;;;10.60;99.90;;;;;;5034759;28;20472;-74
2022/11/09 09:56:10;;;;;;;8.95;1.20;;;10.80;99.90;;;;;;5033512;28;20065;-74
2022/11/09 09:58:44;;;;;;;8.88;1.20;;;10.80;99.90;;;;;;5017499;28;20060;-74
2022/11/09 10:01:19;;;;;;;9.93;1.40;;;10.90;99.90;;;;;;5034602;28;20045;-73
2022/11/09 10:03:47;;;;;;;10.95;1.15;;;10.90;99.90;;;;;;5013991;28;20326;-72
2022/11/09 10:06:41;;;;;;;9.07;1.10;;;10.90;99.90;;;;;;5015312;28;20049;-73
2022/11/09 10:09:17;;;;;;;9.13;1.25;;;11.00;99.90;;;;;;5013840;28;20053;-73
2022/11/09 10:12:23;;;;;;;5.68;1.10;;;11.10;99.90;;;;;;5032279;28;20069;-74
2022/11/09 10:15:14;;;;;;;10.13;1.20;;;11.10;99.90;;;;;;4957495;28;20060;-74
2022/11/09 10:17:50;;;;;;;7.82;1.00;;;11.10;99.90;;;;;;5038181;28;20056;-74
2022/11/09 10:20:33;;;;;;;10.32;1.25;;;11.20;99.90;;;;;;5020757;28;20054;-74
2022/11/09 10:23:10;;;;;;;12.10;1.35;;;11.20;99.90;;;;;;5037234;28;20041;-72
2022/11/09 10:25:39;;;;;;;9.45;1.05;;;11.10;99.90;;;;;;5020677;28;20041;-74
2022/11/09 10:28:28;;;;;;;13.52;1.23;;;11.20;99.90;;;;;;5037079;28;20041;-75
2022/11/09 10:31:18;;;;;;;12.35;1.30;;;11.20;99.90;;;;;;5037054;28;20056;-73
2022/11/09 10:33:52;;;;;;;12.27;1.30;;;11.60;99.90;;;;;;5020382;28;20054;-74
2022/11/09 10:36:28;;;;;;;11.38;1.23;;;11.20;99.90;;;;;;5019138;28;20060;-73
2022/11/09 10:39:03;;;;;;;9.23;1.27;;;11.20;99.90;;;;;;5037539;28;20045;-74
2022/11/09 10:41:49;;;;;;;10.48;1.23;;;11.20;99.90;;;;;;5037674;28;20049;-74
2022/11/09 10:44:34;;;;;;;11.25;1.10;;;11.20;99.90;;;;;;5037033;28;20045;-74
2022/11/09 10:47:25;;;;;;;9.02;1.15;;;11.40;99.90;;;;;;5037753;28;20345;-73
2022/11/09 10:50:29;;;;;;;9.98;1.10;;;11.30;99.90;;;;;;5036848;28;20068;-75
2022/11/09 10:53:23;;;;;;;14.27;1.05;;;11.20;99.90;;;;;;5037309;28;20064;-74
2022/11/09 10:56:15;;;;;;;12.32;1.33;;;11.30;99.90;;;;;;5036083;28;20049;-75
2022/11/09 10:59:44;;;;;;;9.73;1.40;;;11.30;99.90;;;;;;5037369;28;20049;-75
2022/11/09 11:02:38;;;;;;;8.38;1.42;;;11.40;99.90;;;;;;5036028;28;20049;-74
2022/11/09 11:05:26;;;;;;;11.35;1.20;;;11.50;99.90;;;;;;5037024;28;20041;-75
2022/11/09 11:08:23;;;;;;;9.07;1.30;;;11.50;99.90;;;;;;5035873;28;20046;-74
2022/11/09 11:11:26;;;;;;;15.38;1.27;;;11.60;99.90;;;;;;5036998;28;20049;-74
2022/11/09 11:14:25;;;;;;;11.75;1.40;;;11.60;99.90;;;;;;5036818;28;20048;-74
2022/11/09 11:17:41;;;;;;;10.63;1.30;;;11.60;99.90;;;;;;5035774;28;20033;-75
2022/11/09 11:20:35;;;;;;;7.15;1.20;;;11.70;99.90;;;;;;5030805;28;20069;-75
2022/11/09 11:23:24;;;;;;;9.00;1.30;;;11.70;99.90;;;;;;5035574;28;20045;-73
2022/11/09 11:26:28;;;;;;;7.55;0.93;;;11.70;99.90;;;;;;5036873;28;20121;-74
2022/11/09 11:29:23;;;;;;;9.82;1.50;;;11.80;99.90;;;;;;5035566;28;20050;-73
2022/11/09 11:32:17;;;;;;;12.00;1.50;;;11.90;99.90;;;;;;5036664;28;20053;-75
2022/11/09 11:35:12;;;;;;;12.68;1.75;;;12.00;99.90;;;;;;5036280;28;20503;-73
2022/11/09 11:38:20;;;;;;;9.18;1.30;;;12.00;99.90;;;;;;5021993;28;20499;-72
2022/11/09 11:41:23;;;;;;;11.13;1.60;;;12.20;99.90;;;;;;5008824;28;20058;-73
2022/11/09 11:44:29;;;;;;;10.57;1.35;;;12.20;99.90;;;;;;5035249;28;20052;-73
2022/11/09 11:47:36;;;;;;;10.40;1.20;;;12.30;99.90;;;;;;5036317;28;20046;-72
2022/11/09 11:50:42;;;;;;;7.50;1.30;;;12.30;99.90;;;;;;5035166;28;20049;-73
2022/11/09 11:53:50;;;;;;;10.90;1.52;;;12.20;99.90;;;;;;5036142;28;20099;-73
2022/11/09 11:56:57;;;;;;;9.40;1.40;;;12.20;99.90;;;;;;5035083;28;20049;-74
2022/11/09 12:00:01;;;;;;;10.73;1.70;;;12.20;99.90;;;;;;5034692;28;20468;-73
2022/11/09 12:02:56;;;;;;;10.82;1.50;;;11.20;99.90;;;;;;5005542;28;20049;-74
2022/11/09 12:06:23;;;;;;;12.00;1.48;;;12.30;99.90;;;;;;4999145;28;20042;-74
2022/11/09 12:09:23;;;;;;;9.63;1.55;;;12.40;99.90;;;;;;4963154;28;20076;-76
2022/11/09 12:12:48;;;;;;;11.00;1.70;;;12.40;99.90;;;;;;5032557;28;20068;-73
2022/11/09 12:15:50;;;;;;;7.45;1.20;;;12.50;99.90;;;;;;5016335;28;20448;-73
2022/11/09 12:19:12;;;;;;;10.15;1.50;;;12.50;99.90;;;;;;5036424;28;20049;-73
2022/11/09 12:22:19;;;;;;;8.25;1.75;;;12.60;99.90;;;;;;5035667;28;20042;-73
2022/11/09 12:25:29;;;;;;;10.60;1.57;;;12.70;99.90;;;;;;5036302;28;20046;-73
2022/11/09 12:28:15;;;;;;;8.63;1.40;;;12.80;99.90;;;;;;5036124;28;20053;-74
2022/11/09 12:31:45;;;;;;;10.85;1.55;;;13.00;99.90;;;;;;5032083;28;20037;-75
2022/11/09 12:34:37;;;;;;;10.50;1.70;;;13.10;99.90;;;;;;4917912;29;20510;-74
2022/11/09 12:37:27;;;;;;;7.35;1.48;;;13.20;99.90;;;;;;5013462;28;20041;-74
2022/11/09 12:40:47;;;;;;;12.38;1.45;;;13.20;99.90;;;;;;4985113;28;20061;-74
2022/11/09 12:43:50;;;;;;;8.73;1.95;;;13.30;99.90;;;;;;5014254;28;20038;-74
2022/11/09 12:46:48;;;;;;;11.88;1.67;;;13.60;99.90;;;;;;5015520;28;20110;-74
2022/11/09 12:49:35;;;;;;;;;;;13.40;99.90;;;;;;5014903;28;20046;-73
2022/11/09 12:52:26;;;;;;;11.38;1.80;;;13.30;99.90;;;;;;5015011;28;19921;-74
2022/11/09 12:55:20;;;;;;;11.43;1.90;;;13.30;99.90;;;;;;5026240;28;20069;-74
2022/11/09 12:58:06;;;;;;;7.85;1.25;;;13.30;99.90;;;;;;5035081;28;20053;-74
2022/11/09 13:01:09;;;;;;;10.82;1.88;;;13.20;99.90;;;;;;5040184;28;20041;-74
2022/11/09 13:03:57;;;;;;;13.75;2.10;;;13.00;99.90;;;;;;5044271;28;20977;-74
2022/11/09 13:07:06;;;;;;;10.65;1.63;;;13.80;99.90;;;;;;5043264;28;20034;-74
2022/11/09 13:09:55;;;;;;;12.02;1.75;;;13.00;99.90;;;;;;5043683;28;20041;-73
2022/11/09 13:12:41;;;;;;;9.85;1.88;;;13.10;99.90;;;;;;5045230;28;20048;-74
2022/11/09 13:15:30;;;;;;;11.02;1.70;;;13.10;99.90;;;;;;5051613;28;20056;-74
2022/11/09 13:18:30;;;;;;;11.00;1.50;;;13.10;99.90;;;;;;5053684;28;20365;-74
2022/11/09 13:21:22;;;;;;;13.00;2.00;;;13.20;99.90;;;;;;5053375;28;20112;-74